createdAt,value
2022-08-05T00:00:46.393Z,5.53
2022-08-05T00:03:15.848Z,4.88
2022-08-05T00:06:06.486Z,7.35
2022-08-05T00:08:36.186Z,5.47
2022-08-05T00:11:23.751Z,4.40
2022-08-05T00:13:56.076Z,5.07
2022-08-05T00:16:35.652Z,4.80
2022-08-05T00:19:05.860Z,4.60
2022-08-05T00:21:35.881Z,4.28
2022-08-05T00:24:10.677Z,4.80
2022-08-05T00:26:43.431Z,4.50
2022-08-05T00:29:22.527Z,4.75
2022-08-05T00:31:53.572Z,4.63
2022-08-05T00:34:53.754Z,4.90
2022-08-05T00:37:27.732Z,4.72
2022-08-05T00:40:17.976Z,5.03
2022-08-05T00:42:56.485Z,5.38
2022-08-05T00:45:37.899Z,5.22
2022-08-05T00:48:09.270Z,5.57
2022-08-05T00:50:38.051Z,4.93
2022-08-05T00:53:09.855Z,5.28
2022-08-05T00:55:56.299Z,4.90
2022-08-05T00:58:27.168Z,5.00
2022-08-05T01:00:56.244Z,5.22
2022-08-05T01:03:33.342Z,5.20
2022-08-05T01:06:03.969Z,5.47
2022-08-05T01:08:43.026Z,5.07
2022-08-05T01:11:22.464Z,4.60
2022-08-05T01:14:08.918Z,4.60
2022-08-05T01:16:49.607Z,4.50
2022-08-05T01:19:56.288Z,4.90
2022-08-05T01:22:34.107Z,4.60
2022-08-05T01:25:24.049Z,4.97
2022-08-05T01:28:17.744Z,4.90
2022-08-05T01:30:55.073Z,4.70
2022-08-05T01:33:29.521Z,5.38
2022-08-05T01:36:12.937Z,5.55
2022-08-05T01:38:48.505Z,4.90
2022-08-05T01:41:21.770Z,4.78
2022-08-05T01:43:53.575Z,5.28
2022-08-05T01:46:42.578Z,5.80
2022-08-05T01:49:23.828Z,4.63
2022-08-05T01:51:58.344Z,5.95
2022-08-05T01:54:31.546Z,5.80
2022-08-05T01:58:11.070Z,4.90
2022-08-05T01:59:53.653Z,5.10
2022-08-05T02:02:28.480Z,5.10
2022-08-05T02:05:01.730Z,7.22
2022-08-05T02:07:32.287Z,5.95
2022-08-05T02:10:03.409Z,7.93
2022-08-05T02:12:36.655Z,5.85
2022-08-05T02:15:12.410Z,6.75
2022-08-05T02:18:31.138Z,5.63
2022-08-05T02:20:47.165Z,6.45
2022-08-05T02:23:17.648Z,5.40
2022-08-05T02:25:49.818Z,6.28
2022-08-05T02:28:29.017Z,6.45
2022-08-05T02:31:07.626Z,6.25
2022-08-05T02:33:57.404Z,7.15
2022-08-05T02:36:31.541Z,7.28
2022-08-05T02:39:03.206Z,8.35
2022-08-05T02:41:43.275Z,7.60
2022-08-05T02:44:24.722Z,7.80
2022-08-05T02:47:00.962Z,9.40
2022-08-05T02:49:36.740Z,10.32
2022-08-05T02:52:08.570Z,12.35
2022-08-05T02:54:41.387Z,11.68
2022-08-05T02:58:10.734Z,11.35
2022-08-05T03:00:02.027Z,10.43
2022-08-05T03:02:34.893Z,11.35
2022-08-05T03:05:04.265Z,9.25
2022-08-05T03:08:01.111Z,14.07
2022-08-05T03:10:24.862Z,13.02
2022-08-05T03:12:55.173Z,15.05
2022-08-05T03:15:24.472Z,13.38
2022-08-05T03:17:57.602Z,15.45
2022-08-05T03:20:26.988Z,11.40
2022-08-05T03:22:57.272Z,11.80
2022-08-05T03:25:33.878Z,13.27
2022-08-05T03:28:18.716Z,11.82
2022-08-05T03:30:49.330Z,12.25
2022-08-05T03:33:19.534Z,9.90
2022-08-05T03:35:48.365Z,8.32
2022-08-05T03:38:32.583Z,9.70
2022-08-05T03:41:08.392Z,10.15
2022-08-05T03:44:09.871Z,11.45
2022-08-05T03:46:30.039Z,12.52
2022-08-05T03:49:02.627Z,9.48
2022-08-05T03:52:36.907Z,9.63
2022-08-05T03:55:52.465Z,11.38
2022-08-05T03:57:16.638Z,9.50
2022-08-05T04:00:07.052Z,8.52
2022-08-05T04:02:45.251Z,10.52
2022-08-05T04:05:28.082Z,12.65
2022-08-05T04:08:03.587Z,10.35
2022-08-05T04:10:38.222Z,9.93
2022-08-05T04:13:07.625Z,12.68
2022-08-05T04:15:36.779Z,12.45
2022-08-05T04:18:09.709Z,13.90
2022-08-05T04:20:41.099Z,13.38
2022-08-05T04:23:12.265Z,13.00
2022-08-05T04:26:00.204Z,12.77
2022-08-05T04:28:31.704Z,12.70
2022-08-05T04:31:01.114Z,12.10
2022-08-05T04:33:36.400Z,9.27
2022-08-05T04:36:45.152Z,9.25
2022-08-05T04:39:09.988Z,11.00
2022-08-05T04:41:39.912Z,11.52
2022-08-05T04:44:10.071Z,9.40
2022-08-05T04:46:39.259Z,11.40
2022-08-05T04:49:12.281Z,9.43
2022-08-05T04:51:45.132Z,12.70
2022-08-05T04:54:14.959Z,11.80
2022-08-05T04:56:43.874Z,13.40
2022-08-05T04:59:22.177Z,13.52
2022-08-05T05:02:06.812Z,16.35
2022-08-05T05:04:51.350Z,11.38
2022-08-05T05:07:23.909Z,12.52
2022-08-05T05:09:57.921Z,10.65
2022-08-05T05:12:27.559Z,8.85
2022-08-05T05:14:56.357Z,10.07
2022-08-05T05:17:55.515Z,11.18
2022-08-05T05:20:14.316Z,11.68
2022-08-05T05:22:44.721Z,9.77
2022-08-05T05:25:16.420Z,9.02
2022-08-05T05:27:53.558Z,12.52
2022-08-05T05:30:31.413Z,14.02
2022-08-05T05:33:09.436Z,7.72
2022-08-05T05:35:45.838Z,7.53
2022-08-05T05:38:26.954Z,7.88
2022-08-05T05:40:57.192Z,9.00
2022-08-05T05:43:54.314Z,8.80
2022-08-05T05:46:15.681Z,7.35
2022-08-05T05:48:45.850Z,7.80
2022-08-05T05:51:20.511Z,6.50
2022-08-05T05:53:57.600Z,7.57
2022-08-05T05:56:32.750Z,7.03
2022-08-05T05:59:03.226Z,8.30
2022-08-05T06:01:37.519Z,7.97
2022-08-05T06:04:11.378Z,6.65
2022-08-05T06:06:41.583Z,6.95
2022-08-05T06:09:17.540Z,7.88
2022-08-05T06:12:01.899Z,6.72
2022-08-05T06:14:31.107Z,9.63
2022-08-05T06:17:02.235Z,6.15
2022-08-05T06:19:56.637Z,7.47
2022-08-05T06:22:28.759Z,10.38
2022-08-05T06:24:58.935Z,7.88
2022-08-05T06:28:09.226Z,7.63
2022-08-05T06:30:19.835Z,9.38
2022-08-05T06:32:50.571Z,6.30
2022-08-05T06:36:03.081Z,13.38
2022-08-05T06:38:11.270Z,14.43
2022-08-05T06:40:44.471Z,7.18
2022-08-05T06:43:57.999Z,9.18
2022-08-05T06:46:07.012Z,10.82
2022-08-05T06:48:53.831Z,10.60
2022-08-05T06:51:29.998Z,7.90
2022-08-05T06:54:01.849Z,7.82
2022-08-05T06:56:34.437Z,10.15
2022-08-05T06:59:03.413Z,7.72
2022-08-05T07:01:36.981Z,11.55
2022-08-05T07:04:05.498Z,7.20
2022-08-05T07:06:33.757Z,6.20
2022-08-05T07:09:03.795Z,7.50
2022-08-05T07:11:36.870Z,7.82
2022-08-05T07:14:30.099Z,10.50
2022-08-05T07:17:59.115Z,6.40
2022-08-05T07:22:42.432Z,6.15
2022-08-05T07:25:54.219Z,10.68
2022-08-05T07:28:11.522Z,9.55
2022-08-05T07:30:40.515Z,10.55
2022-08-05T07:33:15.945Z,9.13
2022-08-05T07:36:05.229Z,10.02
2022-08-05T07:38:43.103Z,10.35
2022-08-05T07:42:07.743Z,9.95
2022-08-05T07:44:18.499Z,13.70
2022-08-05T07:46:49.798Z,10.27
2022-08-05T07:49:18.926Z,12.57
2022-08-05T07:51:54.017Z,13.98
2022-08-05T07:54:31.329Z,9.05
2022-08-05T07:57:13.993Z,8.18
2022-08-05T07:59:53.469Z,6.80
2022-08-05T08:02:31.219Z,9.38
2022-08-05T08:05:14.966Z,9.38
2022-08-05T08:07:59.994Z,10.43
2022-08-05T08:10:30.306Z,7.50
2022-08-05T08:12:58.959Z,7.93
2022-08-05T08:16:33.218Z,10.23
2022-08-05T08:18:20.836Z,12.98
2022-08-05T08:21:02.390Z,8.00
2022-08-05T08:24:01.767Z,6.15
2022-08-05T08:26:26.775Z,14.40
2022-08-05T08:29:02.353Z,8.75
2022-08-05T08:31:52.222Z,7.88
2022-08-05T08:34:30.719Z,13.48
2022-08-05T08:37:05.267Z,7.32
2022-08-05T08:39:37.579Z,7.53
2022-08-05T08:42:10.814Z,10.75
2022-08-05T08:45:20.552Z,6.40
2022-08-05T08:48:07.396Z,15.05
2022-08-05T08:51:03.389Z,8.80
2022-08-05T08:53:37.562Z,9.43
2022-08-05T08:56:08.909Z,6.78
2022-08-05T08:58:44.397Z,6.88
2022-08-05T09:01:18.016Z,9.45
2022-08-05T09:03:55.280Z,9.70
2022-08-05T09:06:28.121Z,9.45
2022-08-05T09:09:00.312Z,10.45
2022-08-05T09:11:53.179Z,11.23
2022-08-05T09:14:56.938Z,12.10
2022-08-05T09:17:08.213Z,7.07
2022-08-05T09:20:01.672Z,10.18
2022-08-05T09:22:31.068Z,9.40
2022-08-05T09:25:01.213Z,7.10
2022-08-05T09:28:04.564Z,8.50
2022-08-05T09:30:25.476Z,18.05
2022-08-05T09:32:54.393Z,11.52
2022-08-05T09:35:27.610Z,8.13
2022-08-05T09:38:18.485Z,11.98
2022-08-05T09:40:53.624Z,9.07
2022-08-05T09:43:41.366Z,7.07
2022-08-05T09:46:27.449Z,8.02
2022-08-05T09:49:08.226Z,6.82
2022-08-05T09:51:49.687Z,10.30
2022-08-05T09:54:21.404Z,9.25
2022-08-05T09:57:01.541Z,6.95
2022-08-05T09:59:34.827Z,8.88
2022-08-05T10:02:05.861Z,7.80
2022-08-05T10:04:43.313Z,18.17
2022-08-05T10:07:20.423Z,9.20
2022-08-05T10:10:13.744Z,31.77
2022-08-05T10:12:49.998Z,16.83
2022-08-05T10:15:25.702Z,18.85
2022-08-05T10:18:14.127Z,9.30
2022-08-05T10:20:48.834Z,6.65
2022-08-05T10:23:34.658Z,11.88
2022-08-05T10:26:14.540Z,7.45
2022-08-05T10:28:46.594Z,8.75
2022-08-05T10:32:50.751Z,6.35
2022-08-05T10:34:10.004Z,14.10
2022-08-05T10:36:40.783Z,11.15
2022-08-05T10:39:24.139Z,8.25
2022-08-05T10:42:01.222Z,6.07
2022-08-05T10:44:32.722Z,9.75
2022-08-05T10:47:26.897Z,9.25
2022-08-05T10:50:31.776Z,10.10
2022-08-05T10:52:58.558Z,10.70
2022-08-05T10:55:32.901Z,5.68
2022-08-05T10:58:11.649Z,7.47
2022-08-05T11:00:54.900Z,8.15
2022-08-05T11:03:26.933Z,9.30
2022-08-05T11:06:14.625Z,7.95
2022-08-05T11:09:18.601Z,7.93
2022-08-05T11:11:56.382Z,7.70
2022-08-05T11:14:49.369Z,5.82
2022-08-05T11:17:57.744Z,9.32
2022-08-05T11:20:41.822Z,8.52
2022-08-05T11:24:05.225Z,8.55
2022-08-05T11:26:43.411Z,7.80
2022-08-05T11:29:40.327Z,9.48
2022-08-05T11:32:27.449Z,8.10
2022-08-05T11:34:57.415Z,9.18
2022-08-05T11:38:29.693Z,8.15
2022-08-05T11:41:35.104Z,6.78
2022-08-05T11:44:05.805Z,6.85
2022-08-05T11:46:58.287Z,8.10
2022-08-05T11:49:27.245Z,5.50
2022-08-05T11:51:57.366Z,6.10
2022-08-05T11:54:33.753Z,17.17
2022-08-05T11:57:08.353Z,8.27
2022-08-05T11:59:53.263Z,5.95
2022-08-05T12:02:33.088Z,5.25
2022-08-05T12:05:07.027Z,7.15
2022-08-05T12:08:08.457Z,6.22
2022-08-05T12:10:43.690Z,10.82
2022-08-05T12:13:16.478Z,13.50
2022-08-05T12:15:49.929Z,7.53
2022-08-05T12:18:33.084Z,6.78
2022-08-05T12:21:15.823Z,18.40
2022-08-05T12:23:54.423Z,14.13
2022-08-05T12:26:23.164Z,6.38
2022-08-05T12:28:52.270Z,8.35
2022-08-05T12:31:33.684Z,10.35
2022-08-05T12:34:20.293Z,8.32
2022-08-05T12:36:51.007Z,17.48
2022-08-05T12:39:20.289Z,13.55
2022-08-05T12:41:48.861Z,7.35
2022-08-05T12:44:33.090Z,13.93
2022-08-05T12:47:05.711Z,13.95
2022-08-05T12:50:04.853Z,9.20
2022-08-05T12:52:41.661Z,17.35
2022-08-05T12:55:23.761Z,12.43
2022-08-05T12:58:38.959Z,9.93
2022-08-05T13:02:00.554Z,7.05
2022-08-05T13:03:41.713Z,23.73
2022-08-05T13:06:17.363Z,12.52
2022-08-05T13:08:51.597Z,8.98
2022-08-05T13:12:01.232Z,8.20
2022-08-05T13:14:24.625Z,25.42
2022-08-05T13:17:04.263Z,10.52
2022-08-05T13:19:51.642Z,5.72
2022-08-05T13:22:27.794Z,10.60
2022-08-05T13:25:00.602Z,14.52
2022-08-05T13:27:36.300Z,10.77
2022-08-05T13:30:34.570Z,6.00
2022-08-05T13:32:57.543Z,17.00
2022-08-05T13:35:43.204Z,12.93
2022-08-05T13:38:30.459Z,5.70
2022-08-05T13:41:00.099Z,5.43
2022-08-05T13:43:44.852Z,18.30
2022-08-05T13:46:18.525Z,7.97
2022-08-05T13:49:04.456Z,5.90
2022-08-05T13:51:40.253Z,9.73
2022-08-05T13:54:11.670Z,6.63
2022-08-05T13:56:44.982Z,5.80
2022-08-05T13:59:21.076Z,6.97
2022-08-05T14:01:58.337Z,9.23
2022-08-05T14:04:49.996Z,6.32
2022-08-05T14:07:25.743Z,7.53
2022-08-05T14:10:13.064Z,6.45
2022-08-05T14:12:42.942Z,6.25
2022-08-05T14:16:05.682Z,6.32
2022-08-05T14:18:15.063Z,6.78
2022-08-05T14:20:48.510Z,5.07
2022-08-05T14:23:23.940Z,9.18
2022-08-05T14:25:58.719Z,9.15
2022-08-05T14:28:28.543Z,5.93
2022-08-05T14:30:57.061Z,4.75
2022-08-05T14:33:25.275Z,4.28
2022-08-05T14:35:54.510Z,7.55
2022-08-05T14:38:32.341Z,8.05
2022-08-05T14:41:07.711Z,5.45
2022-08-05T14:43:59.434Z,7.70
2022-08-05T14:46:29.822Z,4.68
2022-08-05T14:49:06.315Z,9.73
2022-08-05T14:51:35.429Z,6.85
2022-08-05T14:54:26.028Z,4.00
2022-08-05T14:56:53.747Z,4.57
2022-08-05T14:59:23.818Z,7.80
2022-08-05T15:01:53.728Z,8.35
2022-08-05T15:04:22.775Z,8.20
2022-08-05T15:06:51.584Z,7.80
2022-08-05T15:09:51.742Z,7.13
2022-08-05T15:12:11.640Z,7.00
2022-08-05T15:14:50.523Z,5.18
2022-08-05T15:17:46.550Z,4.13
2022-08-05T15:20:18.518Z,4.38
2022-08-05T15:22:54.122Z,7.97
2022-08-05T15:25:40.969Z,7.63
2022-08-05T15:28:15.653Z,5.63
2022-08-05T15:30:45.534Z,10.52
2022-08-05T15:34:04.376Z,8.95
2022-08-05T15:36:04.710Z,11.77
2022-08-05T15:38:40.811Z,5.45
2022-08-05T15:41:22.759Z,11.38
2022-08-05T15:43:55.024Z,8.45
2022-08-05T15:46:24.984Z,7.68
2022-08-05T15:49:01.226Z,7.38
2022-08-05T15:52:09.822Z,8.13
2022-08-05T15:54:34.965Z,5.47
2022-08-05T15:57:07.593Z,7.20
2022-08-05T15:59:38.194Z,5.97
2022-08-05T16:02:09.870Z,7.15
2022-08-05T16:04:44.061Z,7.15
2022-08-05T16:07:13.394Z,6.53
2022-08-05T16:09:42.116Z,6.90
2022-08-05T16:12:12.301Z,3.28
2022-08-05T16:14:41.948Z,9.73
2022-08-05T16:17:12.958Z,5.72
2022-08-05T16:20:04.800Z,6.97
2022-08-05T16:22:34.315Z,4.60
2022-08-05T16:25:09.359Z,5.13
2022-08-05T16:28:00.641Z,6.50
2022-08-05T16:30:29.415Z,5.07
2022-08-05T16:32:58.851Z,3.70
2022-08-05T16:35:32.459Z,9.18
2022-08-05T16:38:23.970Z,12.00
2022-08-05T16:40:55.760Z,8.25
2022-08-05T16:43:31.333Z,5.68
2022-08-05T16:46:09.145Z,9.90
2022-08-05T16:48:51.239Z,6.53
2022-08-05T16:51:19.509Z,5.00
2022-08-05T16:54:05.212Z,4.10
2022-08-05T16:56:40.433Z,8.55
2022-08-05T16:59:10.293Z,8.85
2022-08-05T17:01:53.909Z,5.70
2022-08-05T17:04:26.446Z,8.30
2022-08-05T17:06:56.976Z,13.43
2022-08-05T17:09:29.476Z,14.18
2022-08-05T17:11:59.361Z,16.63
2022-08-05T17:14:36.850Z,15.15
2022-08-05T17:17:14.600Z,14.00
2022-08-05T17:19:46.086Z,18.13
2022-08-05T17:22:17.754Z,16.40
2022-08-05T17:24:57.822Z,18.80
2022-08-05T17:27:33.711Z,16.88
2022-08-05T17:30:03.488Z,16.70
2022-08-05T17:32:34.664Z,18.52
2022-08-05T17:35:04.103Z,18.80
2022-08-05T17:37:41.005Z,20.08
2022-08-05T17:40:15.384Z,17.88
2022-08-05T17:42:51.926Z,20.38
2022-08-05T17:45:22.449Z,18.15
2022-08-05T17:47:55.396Z,18.45
2022-08-05T17:50:28.475Z,19.75
2022-08-05T17:53:00.452Z,17.45
2022-08-05T17:55:38.219Z,19.38
2022-08-05T17:58:12.648Z,18.08
2022-08-05T18:00:45.473Z,17.60
2022-08-05T18:03:56.497Z,16.73
2022-08-05T18:06:12.075Z,18.35
2022-08-05T18:08:45.824Z,15.60
2022-08-05T18:11:24.549Z,16.10
2022-08-05T18:14:01.220Z,18.48
2022-08-05T18:16:32.806Z,17.73
2022-08-05T18:19:04.028Z,18.50
2022-08-05T18:22:08.420Z,17.83
2022-08-05T18:24:20.991Z,15.85
2022-08-05T18:26:49.300Z,13.75
2022-08-05T18:29:17.663Z,16.30
2022-08-05T18:32:06.571Z,15.68
2022-08-05T18:34:42.799Z,10.82
2022-08-05T18:37:12.172Z,9.65
2022-08-05T18:40:31.794Z,9.82
2022-08-05T18:42:29.652Z,8.00
2022-08-05T18:44:57.939Z,11.52
2022-08-05T18:47:28.435Z,12.68
2022-08-05T18:50:17.767Z,12.73
2022-08-05T18:52:51.465Z,13.85
2022-08-05T18:55:22.256Z,14.90
2022-08-05T18:57:54.064Z,15.30
2022-08-05T19:00:31.199Z,17.23
2022-08-05T19:03:03.681Z,16.10
2022-08-05T19:06:12.349Z,15.95
2022-08-05T19:08:30.252Z,14.55
2022-08-05T19:11:04.730Z,14.48
2022-08-05T19:13:35.900Z,17.15
2022-08-05T19:16:25.481Z,17.55
2022-08-05T19:18:56.775Z,16.65
2022-08-05T19:21:34.398Z,16.58
2022-08-05T19:24:08.955Z,15.10
2022-08-05T19:26:54.460Z,20.67
2022-08-05T19:29:24.113Z,18.70
2022-08-05T19:31:56.114Z,16.95
2022-08-05T19:34:26.833Z,16.48
2022-08-05T19:36:56.488Z,14.80
2022-08-05T19:39:25.017Z,13.77
2022-08-05T19:42:05.927Z,12.52
2022-08-05T19:44:44.478Z,11.75
2022-08-05T19:47:16.256Z,10.48
2022-08-05T19:49:46.019Z,9.65
2022-08-05T19:52:31.004Z,9.27
2022-08-05T19:55:07.284Z,8.15
2022-08-05T19:58:04.147Z,8.95
2022-08-05T20:00:38.743Z,7.68
2022-08-05T20:03:08.944Z,7.78
2022-08-05T20:05:42.939Z,7.50
2022-08-05T20:08:13.297Z,7.03
2022-08-05T20:10:43.256Z,7.38
2022-08-05T20:13:12.202Z,6.85
2022-08-05T20:15:51.744Z,8.57
2022-08-05T20:18:35.155Z,6.97
2022-08-05T20:21:06.750Z,8.57
2022-08-05T20:23:40.305Z,7.10
2022-08-05T20:26:20.441Z,6.82
2022-08-05T20:28:50.901Z,7.57
2022-08-05T20:31:21.653Z,7.47
2022-08-05T20:33:51.700Z,8.45
2022-08-05T20:36:24.099Z,7.20
2022-08-05T20:38:57.911Z,6.40
2022-08-05T20:41:43.144Z,6.57
2022-08-05T20:44:17.171Z,6.55
2022-08-05T20:46:48.328Z,8.68
2022-08-05T20:49:23.918Z,8.90
2022-08-05T20:51:53.479Z,6.30
2022-08-05T20:54:25.352Z,6.60
2022-08-05T20:56:53.912Z,5.70
2022-08-05T20:59:27.174Z,5.72
2022-08-05T21:02:10.918Z,8.00
2022-08-05T21:04:39.223Z,5.57
2022-08-05T21:07:08.911Z,6.57
2022-08-05T21:09:50.337Z,7.65
2022-08-05T21:12:22.272Z,5.68
2022-08-05T21:14:55.288Z,5.10
2022-08-05T21:17:26.260Z,6.72
2022-08-05T21:19:57.379Z,6.15
2022-08-05T21:22:27.189Z,6.18
2022-08-05T21:24:58.033Z,10.20
2022-08-05T21:27:27.430Z,6.72
2022-08-05T21:29:56.685Z,8.20
2022-08-05T21:32:27.008Z,5.75
2022-08-05T21:35:09.057Z,5.40
2022-08-05T21:37:47.307Z,6.50
2022-08-05T21:40:23.635Z,5.35
2022-08-05T21:42:53.830Z,5.97
2022-08-05T21:45:25.071Z,4.93
2022-08-05T21:48:11.030Z,5.15
2022-08-05T21:50:41.952Z,4.65
2022-08-05T21:53:21.583Z,5.00
2022-08-05T21:56:05.781Z,5.25
2022-08-05T21:58:42.229Z,5.80
2022-08-05T22:01:11.201Z,4.68
2022-08-05T22:03:53.617Z,4.85
2022-08-05T22:06:37.067Z,4.65
2022-08-05T22:09:13.547Z,5.18
2022-08-05T22:11:46.793Z,5.22
2022-08-05T22:14:32.981Z,4.30
2022-08-05T22:17:06.936Z,4.78
2022-08-05T22:20:00.250Z,4.97
2022-08-05T22:22:28.271Z,4.60
2022-08-05T22:25:21.646Z,4.82
2022-08-05T22:28:10.825Z,4.82
2022-08-05T22:30:44.084Z,4.75
2022-08-05T22:33:56.523Z,5.38
2022-08-05T22:36:15.030Z,4.45
2022-08-05T22:38:48.238Z,4.43
2022-08-05T22:42:04.446Z,4.50
2022-08-05T22:44:08.677Z,4.93
2022-08-05T22:46:40.036Z,4.40
2022-08-05T22:49:12.173Z,4.28
2022-08-05T22:52:05.988Z,4.90
2022-08-05T22:54:36.594Z,4.35
2022-08-05T22:57:05.940Z,4.30
2022-08-05T22:59:45.803Z,5.20
2022-08-05T23:02:17.607Z,4.80
2022-08-05T23:04:51.598Z,5.05
2022-08-05T23:07:22.009Z,4.80
2022-08-05T23:09:58.004Z,5.35
2022-08-05T23:12:32.469Z,4.78
2022-08-05T23:15:08.583Z,4.90
2022-08-05T23:18:01.572Z,5.35
2022-08-05T23:20:26.555Z,5.35
2022-08-05T23:22:56.271Z,5.20
2022-08-05T23:25:54.520Z,5.60
2022-08-05T23:28:15.816Z,5.88
2022-08-05T23:30:53.107Z,5.25
2022-08-05T23:34:03.353Z,4.80
2022-08-05T23:36:13.472Z,4.97
2022-08-05T23:38:43.723Z,6.75
2022-08-05T23:41:12.831Z,4.95
2022-08-05T23:44:04.427Z,5.35
2022-08-05T23:46:31.884Z,5.97
2022-08-05T23:49:02.084Z,4.95
2022-08-05T23:52:01.652Z,5.03
2022-08-05T23:54:36.354Z,4.97
2022-08-05T23:57:06.537Z,5.28
